< < Back
Terminal Aerodrome Forecast


Current Version              Previous Versions:   1  2  3  4  5  6  7  8  9  

Terminal Aerodrome Forecast

680
FTUS42 KFFC 022334
TAFPDK
TAF
KPDK 022334Z 0300/0324 24005KT P6SM BKN050 BKN100
     FM030200 25006KT P6SM SCT060 BKN250
     FM030900 23005KT 4SM BR BKN012
     FM031400 25012KT P6SM BKN025 BKN250
     FM031600 26012G18KT P6SM SCT050 BKN250 PROB30 0318/0323 4SM
      TSRA BKN025CB=

Latest METAR

038
SAUS70 KWBC 031400 RRB
MTRPDK
METAR KPDK 031353Z 26008KT 6SM -TSRA BR BKN009 BKN013 21/20 A3001 RMK
AO2 LTG DSNT E-SW RAB19 TSB28 SLP148 P0018 T02110200


USA.gov is the U.S. government's official web portal to all federal, state and local government web resources and services.